M I D A S
Marine Information and Data Acquisition System
Tripno 762 of the Zeeleeuw from 2004-08-16 06:43:36 to 2004-08-16 14:54:04
Back to CruiseResearch ActivitiesStationsMapUnderway DataData graphs

EquipmentUnitsComment
TimeDGPSUTC
LatitudeDGPSDM.mWGS84
LongitudeDGPSDM.mWGS84
HeadingGyrodeg 
SOGDGPSknotsSpeed over ground
COGDGPSdegCourse over ground
DepthEcho soundermeters200 kHz
Missing or incorrect values are displayed as -999
Navigation data collected by the RV Zeeleeuw from 2004-08-16 06:43:36 to 2004-08-16 14:54:04
Time Latitude Longitude Heading SOG COG Depth
2004-08-16 06:44:41 51°13.595 2°56.114 128.9   183 6.5
2004-08-16 06:45:48 51°13.595 2°56.115 120.4 0.1 177 6
2004-08-16 06:46:44 51°13.597 2°56.108 117.8 1.7 296 5.7
2004-08-16 06:47:48 51°13.625 2°56.023 114.9 4 294 7.6
2004-08-16 06:48:48 51°13.638 2°55.977 116.6 0.7 297 8.3
2004-08-16 06:49:54 51°13.653 2°55.939 124.3 3.6 299 -999
2004-08-16 06:50:53 51°13.689 2°55.841 117.4 4.6 298 9.3
2004-08-16 06:51:51 51°13.71 2°55.747 91.8 2.3 283 11.1
2004-08-16 06:52:54 51°13.719 2°55.726 33.8 1.3 241 9.6
2004-08-16 06:54:00 51°13.734 2°55.698 339 4.1 332 9.7
2004-08-16 06:55:09 51°13.848 2°55.61 342.1 7.9 338 9.6
2004-08-16 06:56:09 51°13.977 2°55.526 341.9 8.5 338 9.8
2004-08-16 06:57:09 51°14.112 2°55.43 340.4 9.7 334 10.1
2004-08-16 06:58:12 51°14.261 2°55.263 321 11.1 314 9.8
2004-08-16 06:59:12 51°14.387 2°55.017 315.1 12.8 310 9.8
2004-08-16 07:00:12 51°14.562 2°54.812 341.5 13.1 334 8.8
2004-08-16 07:01:14 51°14.772 2°54.691 352.5 12.9 344 8.3
2004-08-16 07:02:26 51°15.02 2°54.6 355.5 12.5 347 7.5
2004-08-16 07:03:25 51°15.205 2°54.473 339.6 12.6 332 7.5
2004-08-16 07:04:33 51°15.434 2°54.369 356.9 12.8 346 8.2
2004-08-16 07:05:41 51°15.667 2°54.267 359.8 12.8 350 9.1
2004-08-16 07:06:40 51°15.875 2°54.199 2.9 12.8 352 9.3
2004-08-16 07:07:43 51°16.046 2°54.126 353.9 7.9 346 10.5
2004-08-16 07:08:48 51°16.156 2°54.169 38.9 5.9 32 10.8
2004-08-16 07:09:48 51°16.221 2°54.239 42.3 3.9 34 10.9
2004-08-16 07:10:45 51°16.26 2°54.27 30.6 1.5 11 10.9
2004-08-16 07:11:53 51°16.27 2°54.256 5 0.8 291 11
2004-08-16 07:12:53 51°16.275 2°54.233 355 0.9 289 11
2004-08-16 07:14:00 51°16.281 2°54.207 357.5 1 298 11
2004-08-16 07:15:05 51°16.291 2°54.183 1.2 1.6 325 11
2004-08-16 07:16:04 51°16.363 2°54.09 331 10 320 10.9
2004-08-16 07:17:04 51°16.5 2°53.847 317.5 13.4 306 11
2004-08-16 07:18:04 51°16.637 2°53.562 318.8 13.5 310 11
2004-08-16 07:19:04 51°16.782 2°53.294 317.6 13.3 310 10.3
2004-08-16 07:20:05 51°16.928 2°53.04 320.5 12.2 310 7.3
2004-08-16 07:21:16 51°17.098 2°52.746 327.6 13.1 318 9.1
2004-08-16 07:22:20 51°17.254 2°52.472 323.5 13.1 315 9.1
2004-08-16 07:23:26 51°17.423 2°52.197 325.8 13.1 318 9.5
2004-08-16 07:24:24 51°17.584 2°51.986 328.4 13 319 9.6
2004-08-16 07:25:29 51°17.762 2°51.744 328 12.9 318 9.3
2004-08-16 07:26:32 51°17.939 2°51.518 331.9 13 322 9.7
2004-08-16 07:27:32 51°18.109 2°51.297 330.2 13.2 322 11
2004-08-16 07:28:32 51°18.289 2°51.102 335.4 13.1 325 12.2
2004-08-16 07:29:32 51°18.435 2°50.995 7.6 6.7 2 13
2004-08-16 07:30:32 51°18.49 2°51.048 50.3 1.4 53 13.1
2004-08-16 07:31:36 51°18.483 2°51.048 74.8 0.5 175 13.1
2004-08-16 07:32:36 51°18.473 2°51.052 75.7 0.6 166 13
2004-08-16 07:33:41 51°18.46 2°51.057 72.5 0.7 163 13.2
2004-08-16 07:34:42 51°18.45 2°51.061 65.2 0.5 169 13.3
2004-08-16 07:35:41 51°18.441 2°51.063 57.5 0.5 172 13.1
2004-08-16 07:36:40 51°18.444 2°51.077 47.5 2.3 46 13.1
2004-08-16 07:37:48 51°18.557 2°51.2 42 9.8 39 13.2
2004-08-16 07:38:45 51°18.669 2°51.423 61.6 11.9 60 13.3
2004-08-16 07:39:47 51°18.744 2°51.731 70.6 12.2 69 12.9
2004-08-16 07:40:48 51°18.817 2°52.04 70.6 12.2 70 12.5
2004-08-16 07:41:48 51°18.888 2°52.343 70 12.2 69 12.2
2004-08-16 07:42:47 51°18.959 2°52.64 69.6 12.1 69 11.8
2004-08-16 07:43:47 51°19.031 2°52.941 70.6 12.1 69 11.6
2004-08-16 07:44:48 51°19.108 2°53.245 70 12.2 69 11.5
2004-08-16 07:45:52 51°19.188 2°53.566 70.6 12.2 69 11.4
2004-08-16 07:46:56 51°19.269 2°53.887 69.8 12.2 71 11.5
2004-08-16 07:48:00 51°19.338 2°54.212 72.1 12 70 11.5
2004-08-16 07:49:02 51°19.406 2°54.522 73 11.9 71 11.5
2004-08-16 07:50:08 51°19.483 2°54.848 72.5 11.9 71 11.5
2004-08-16 07:51:08 51°19.551 2°55.144 71.1 11.9 69 11.4
2004-08-16 07:52:08 51°19.617 2°55.44 71.8 11.8 69 11.4
2004-08-16 07:53:08 51°19.679 2°55.74 74.1 11.8 72 11.4
2004-08-16 07:54:16 51°19.749 2°56.08 74.8 11.9 72 11.2
2004-08-16 07:55:16 51°19.806 2°56.383 74.7 11.9 72 11
2004-08-16 07:56:16 51°19.864 2°56.686 74.7 11.9 73 11
2004-08-16 07:57:20 51°19.929 2°57.008 73.8 11.9 71 10.9
2004-08-16 07:58:20 51°19.991 2°57.306 74 11.8 72 10.8
2004-08-16 07:59:20 51°20.052 2°57.605 74.4 11.8 73 10.7
2004-08-16 08:00:21 51°20.112 2°57.909 74.7 11.8 73 10.5
2004-08-16 08:01:21 51°20.17 2°58.209 74 11.8 73 10.5
2004-08-16 08:02:20 51°20.225 2°58.504 74 11.8 72 10.4
2004-08-16 08:03:24 51°20.285 2°58.825 74.8 11.8 73 10.2
2004-08-16 08:04:25 51°20.344 2°59.13 74.6 11.8 73 10.2
2004-08-16 08:05:32 51°20.409 2°59.464 73.6 11.8 72 10.1
2004-08-16 08:06:32 51°20.467 2°59.766 74.1 12 73 10
2004-08-16 08:07:31 51°20.524 3°0.063 74.1 11.9 74 10
2004-08-16 08:08:32 51°20.584 3°0.372 73 12 72 9.9
2004-08-16 08:09:32 51°20.639 3°0.676 73.4 11.9 72 9.8
2004-08-16 08:10:34 51°20.697 3°0.988 74 11.8 73 9.7
2004-08-16 08:11:40 51°20.759 3°1.32 73.4 11.9 72 9.7
2004-08-16 08:12:40 51°20.815 3°1.623 73.5 11.9 72 9.7
2004-08-16 08:13:40 51°20.87 3°1.927 75.4 11.9 74 9.9
2004-08-16 08:14:46 51°20.934 3°2.259 73.9 11.9 72 9.8
2004-08-16 08:15:52 51°20.997 3°2.591 74 11.9 73 9.9
2004-08-16 08:16:52 51°21.058 3°2.894 73.3 12 72 9.8
2004-08-16 08:17:52 51°21.127 3°3.194 72.7 12 72 9.9
2004-08-16 08:18:52 51°21.193 3°3.494 71.9 12 70 10
2004-08-16 08:19:52 51°21.252 3°3.798 74 12 72 10.1
2004-08-16 08:20:52 51°21.309 3°4.104 74 12 72 10.1
2004-08-16 08:21:52 51°21.37 3°4.408 74 12.1 72 10.1
2004-08-16 08:22:52 51°21.432 3°4.714 74 12.1 73 10.2
2004-08-16 08:23:53 51°21.489 3°5.026 75.7 12 74 10.3
2004-08-16 08:24:53 51°21.543 3°5.333 76.2 11.9 75 10.3
2004-08-16 08:25:55 51°21.594 3°5.653 76.6 12.1 76 8.7
2004-08-16 08:26:52 51°21.642 3°5.949 76.9 12.2 76 10.3
2004-08-16 08:28:00 51°21.704 3°6.303 76 12.3 76 10.5
2004-08-16 08:29:00 51°21.758 3°6.618 75 12.3 74 10.7
2004-08-16 08:30:00 51°21.814 3°6.933 76.6 12.3 75 10.6
2004-08-16 08:31:00 51°21.862 3°7.251 76.7 12.2 74 10.9
2004-08-16 08:32:00 51°21.915 3°7.566 76.1 12.3 74 11.1
2004-08-16 08:32:59 51°21.966 3°7.877 78.9 12.3 78 11.2
2004-08-16 08:34:00 51°22.013 3°8.202 76.9 12.3 77 11.3
2004-08-16 08:35:14 51°22.068 3°8.596 80.1 12.3 82 11.4
2004-08-16 08:36:13 51°22.075 3°8.919 89.2 12.4 90 11.7
2004-08-16 08:37:13 51°22.059 3°9.25 94.8 12.5 95 12
2004-08-16 08:38:14 51°22.048 3°9.586 89.9 12.5 89 12.3
2004-08-16 08:39:14 51°22.049 3°9.919 89.8 12.6 90 13.1
2004-08-16 08:40:13 51°22.054 3°10.248 88.4 12.7 89 13.9
2004-08-16 08:41:20 51°22.068 3°10.625 86.5 12.8 86 15.1
2004-08-16 08:42:20 51°22.08 3°10.968 87 13 87 18.1
2004-08-16 08:43:26 51°22.117 3°11.341 77.5 12.8 74 16.3
2004-08-16 08:44:26 51°22.192 3°11.662 70.5 12.9 69 15.8
2004-08-16 08:45:31 51°22.274 3°12.011 73.3 13 71 15.3
2004-08-16 08:46:36 51°22.354 3°12.36 70.6 12.9 67 14.2
2004-08-16 08:47:36 51°22.442 3°12.674 69.4 12.9 66 13.3
2004-08-16 08:48:38 51°22.531 3°12.99 68.7 11 65 12.6
2004-08-16 08:49:38 51°22.586 3°13.178 62.7 5.5 54 12.1
2004-08-16 08:50:38 51°22.62 3°13.23 61.7 0.4 358 12
2004-08-16 08:51:37 51°22.62 3°13.232 86.7 0.2 100 12
2004-08-16 08:52:37 51°22.62 3°13.241 86.3 0.4 87 12
2004-08-16 08:53:37 51°22.621 3°13.253 70.8 0.5 64 12
2004-08-16 08:54:37 51°22.627 3°13.266 53.2 0.6 46 12
2004-08-16 08:55:51 51°22.68 3°13.298 21.7 8.3 17 11.6
2004-08-16 08:56:53 51°22.842 3°13.424 42.6 11.3 39 11.2
2004-08-16 08:57:52 51°22.981 3°13.655 54.9 12.7 51 10.8
2004-08-16 08:58:52 51°23.087 3°13.946 63.5 12.7 60 10.3
2004-08-16 08:59:53 51°23.185 3°14.251 66 12.8 61 9.7
2004-08-16 09:00:52 51°23.28 3°14.547 67.2 12.8 62 9.2
2004-08-16 09:01:53 51°23.391 3°14.841 57.3 12.7 50 9
2004-08-16 09:02:51 51°23.546 3°15.05 42.8 12.7 37 9.8
2004-08-16 09:03:53 51°23.718 3°15.267 45 12.7 39 11.2
2004-08-16 09:04:57 51°23.892 3°15.494 46.1 12.6 40 12.1
2004-08-16 09:05:58 51°24.058 3°15.713 45.2 12.8 40 12.6
2004-08-16 09:06:58 51°24.228 3°15.919 41 13 35 12.5
2004-08-16 09:08:01 51°24.414 3°16.138 41.3 13.4 38 17.2
2004-08-16 09:09:00 51°24.59 3°16.351 41.5 13.5 39 17.7
2004-08-16 09:10:00 51°24.768 3°16.571 41.6 13.5 39 15.6
2004-08-16 09:11:01 51°24.949 3°16.786 39.4 13.2 35 13.4
2004-08-16 09:12:01 51°25.122 3°16.999 40.9 13.1 38 12.5
2004-08-16 09:13:01 51°25.296 3°17.204 39.9 12.9 38 10.2
2004-08-16 09:14:01 51°25.476 3°17.395 34.8 13 33 9.5
2004-08-16 09:15:01 51°25.66 3°17.573 30.3 12.1 28 8.9
2004-08-16 09:16:01 51°25.788 3°17.702 35.3 7.2 36 8.8
2004-08-16 09:17:01 51°25.882 3°17.787 24 5.4 25 8.6
2004-08-16 09:18:01 51°25.919 3°17.821 30.1 0.9 91 8.7
2004-08-16 09:19:00 51°25.915 3°17.847 52.4 1.2 106 8.6
2004-08-16 09:20:01 51°25.91 3°17.88 57.6 1.4 101 8.8
2004-08-16 09:21:01 51°25.907 3°17.917 52.6 1.4 96 8.8
2004-08-16 09:22:08 51°25.906 3°17.957 48.9 1.3 91 8.8
2004-08-16 09:23:08 51°25.907 3°17.993 45.3 1.5 81 8.9
2004-08-16 09:24:08 51°25.978 3°17.994 335.5 6.5 321 8.6
2004-08-16 09:25:07 51°25.989 3°17.791 269.5 10.4 260 8.4
2004-08-16 09:26:08 51°25.947 3°17.473 267.8 12.4 261 7.2
2004-08-16 09:27:08 51°25.909 3°17.143 263.9 12.8 255 7.9
2004-08-16 09:28:08 51°25.866 3°16.808 271.2 12.8 264 8
2004-08-16 09:29:08 51°25.823 3°16.474 261.6 12.9 254 8
2004-08-16 09:30:08 51°25.796 3°16.137 271.4 12.8 262 7.9
2004-08-16 09:31:08 51°25.747 3°15.803 269.2 12.8 263 7
2004-08-16 09:32:08 51°25.711 3°15.465 263.8 13 255 8
2004-08-16 09:33:08 51°25.66 3°15.13 270 12.9 263 8.1
2004-08-16 09:34:08 51°25.622 3°14.792 263.3 13 255 8.1
2004-08-16 09:35:08 51°25.586 3°14.452 271.6 12.9 263 8.4
2004-08-16 09:36:08 51°25.543 3°14.111 268.5 13.1 262 8.7
2004-08-16 09:37:08 51°25.517 3°13.764 269.9 13.1 263 9.2
2004-08-16 09:38:08 51°25.494 3°13.418 270.3 13.1 263 9.4
2004-08-16 09:39:08 51°25.47 3°13.073 271.7 13 265 9.5
2004-08-16 09:40:08 51°25.445 3°12.728 270.8 13 264 9.6
2004-08-16 09:41:14 51°25.417 3°12.35 269.2 13 263 9.9
2004-08-16 09:42:14 51°25.393 3°12.005 269.7 13 264 9.9
2004-08-16 09:43:13 51°25.415 3°11.673 286.8 12.8 279 9.8
2004-08-16 09:44:14 51°25.455 3°11.336 293.4 12.5 291 9.4
2004-08-16 09:45:18 51°25.596 3°11.079 323.9 12 317 8.2
2004-08-16 09:46:17 51°25.73 3°10.854 319.5 11.9 312 7.5
2004-08-16 09:47:24 51°25.897 3°10.626 327.4 11.9 317 7.6
2004-08-16 09:48:23 51°25.984 3°10.34 301.7 12.3 295 7.9
2004-08-16 09:49:23 51°26.045 3°10.023 289.4 12.7 282 8.2
2004-08-16 09:50:23 51°26.108 3°9.702 296.8 12.7 288 8.6
2004-08-16 09:51:24 51°26.165 3°9.367 294.9 12.8 288 9
2004-08-16 09:52:24 51°26.222 3°9.037 292 12.9 284 9.5
2004-08-16 09:53:24 51°26.275 3°8.724 288.1 10.5 278 9.9
2004-08-16 09:54:24 51°26.328 3°8.582 335.9 5.7 326 10.6
2004-08-16 09:55:24 51°26.41 3°8.474 328 7.1 319 10.9
2004-08-16 09:56:24 51°26.458 3°8.371 308.2 2.6 292 11.2
2004-08-16 09:57:24 51°26.457 3°8.353 343.5 0.3 196 11.3
2004-08-16 09:58:24 51°26.454 3°8.354 350.2 0.2 163 11.2
2004-08-16 09:59:28 51°26.449 3°8.356 342 0.4 172 11.2
2004-08-16 10:00:32 51°26.442 3°8.357 337.6 0.5 168 11.2
2004-08-16 10:01:32 51°26.433 3°8.36 335.3 0.5 168 11.2
2004-08-16 10:02:38 51°26.423 3°8.363 331.4 0.7 164 11.2
2004-08-16 10:03:39 51°26.412 3°8.366 330.6 0.7 169 11.3
2004-08-16 10:04:40 51°26.421 3°8.325 306.7 5.3 291 11.1
2004-08-16 10:05:45 51°26.432 3°8.041 275.3 12.6 267 10.8
2004-08-16 10:06:45 51°26.454 3°7.702 291.7 12.8 286 10.4
2004-08-16 10:07:44 51°26.546 3°7.403 308.8 12.8 302 11.1
2004-08-16 10:08:44 51°26.657 3°7.111 308.9 12.9 301 11.6
2004-08-16 10:09:45 51°26.768 3°6.814 308.5 12.7 301 12.1
2004-08-16 10:10:44 51°26.876 3°6.526 308.8 12.8 301 12.4
2004-08-16 10:11:44 51°26.985 3°6.233 308.4 12.8 301 12.7
2004-08-16 10:12:45 51°27.096 3°5.934 308.6 12.9 301 13
2004-08-16 10:13:45 51°27.217 3°5.651 315.2 12.8 309 14
2004-08-16 10:14:55 51°27.37 3°5.338 315.6 12.9 308 14.8
2004-08-16 10:16:03 51°27.521 3°5.033 315.4 12.8 309 14.8
2004-08-16 10:17:04 51°27.655 3°4.758 315 12.9 308 13.7
2004-08-16 10:18:10 51°27.801 3°4.46 315.4 12.9 308 15.7
2004-08-16 10:19:26 51°27.969 3°4.114 315 13.1 307 18.5
2004-08-16 10:20:32 51°28.115 3°3.812 315 13 307 20.7
2004-08-16 10:21:35 51°28.236 3°3.555 315.2 8.7 306 22.6
2004-08-16 10:22:34 51°28.267 3°3.452 308.8 0.9 258 23.3
2004-08-16 10:23:40 51°28.259 3°3.444 330.7 0.4 201 4.7
2004-08-16 10:24:40 51°28.255 3°3.44 347.6 0.2 219 23.3
2004-08-16 10:25:40 51°28.253 3°3.438 357 0.1 186 23.3
2004-08-16 10:26:40 51°28.252 3°3.437 351 0.1 232 23.3
2004-08-16 10:27:40 51°28.251 3°3.433 345.7 0.2 245 23.5
2004-08-16 10:28:40 51°28.249 3°3.43 345.4 0.1 195 23.4
2004-08-16 10:29:53 51°28.247 3°3.426 343.3 0.2 237 23.3
2004-08-16 10:30:53 51°28.245 3°3.421 339.3 0.2 240 23.3
2004-08-16 10:32:06 51°28.242 3°3.417 339.6 0.1 236 23.3
2004-08-16 10:33:08 51°28.242 3°3.414 339.6 0.2 241 23.4
2004-08-16 10:34:08 51°28.283 3°3.346 317.9 6.9 307 23.8
2004-08-16 10:35:18 51°28.328 3°3.011 278.3 13.2 265 24.4
2004-08-16 10:36:18 51°28.278 3°2.66 261.2 13.7 255 24.7
2004-08-16 10:37:24 51°28.218 3°2.271 262.3 13.6 257 24.6
2004-08-16 10:38:28 51°28.163 3°1.892 263.4 13.7 257 24.5
2004-08-16 10:39:29 51°28.112 3°1.529 263.2 13.7 257 24.4
2004-08-16 10:40:38 51°28.054 3°1.12 263.7 13.7 258 23.4
2004-08-16 10:41:48 51°27.996 3°0.704 264.7 13.7 257 22.2
2004-08-16 10:42:48 51°27.945 3°0.346 263.8 13.7 258 22.4
2004-08-16 10:43:48 51°27.896 2°59.99 264.3 13.7 257 19.7
2004-08-16 10:44:50 51°27.845 2°59.622 263.8 13.7 257 19.8
2004-08-16 10:45:48 51°27.797 2°59.279 264.1 13.7 257 20
2004-08-16 10:46:50 51°27.744 2°58.914 262.2 13.6 255 20.3
2004-08-16 10:48:03 51°27.659 2°58.494 257.7 13.7 252 21.4
2004-08-16 10:49:04 51°27.588 2°58.141 257.5 13.7 252 19.9
2004-08-16 10:50:13 51°27.509 2°57.739 257.5 13.8 253 26
2004-08-16 10:51:15 51°27.439 2°57.378 258.3 13.7 253 27.8
2004-08-16 10:52:15 51°27.371 2°57.028 257.1 13.8 252 27.1
2004-08-16 10:53:18 51°27.301 2°56.663 258.1 13.7 254 23
2004-08-16 10:54:17 51°27.238 2°56.318 258.8 13.7 254 28.4
2004-08-16 10:55:24 51°27.166 2°55.927 257.9 13.7 253 28.2
2004-08-16 10:56:33 51°27.093 2°55.524 258.4 13.7 254 30.4
2004-08-16 10:57:37 51°27.026 2°55.151 258.7 13.7 254 28.9
2004-08-16 10:58:43 51°26.958 2°54.767 258.3 13.6 255 29.2
2004-08-16 10:59:43 51°26.897 2°54.42 257.9 13.5 254 26
2004-08-16 11:00:48 51°26.833 2°54.044 258 13.5 254 27.8
2004-08-16 11:01:48 51°26.776 2°53.698 258.5 13.3 256 31.1
2004-08-16 11:02:58 51°26.709 2°53.297 258.4 13.4 254 32.2
2004-08-16 11:04:15 51°26.635 2°52.857 258.8 13.2 255 30.2
2004-08-16 11:05:20 51°26.573 2°52.492 260.1 13 257 28.6
2004-08-16 11:06:28 51°26.518 2°52.113 260.6 12.9 256 27.3
2004-08-16 11:07:32 51°26.466 2°51.758 260.5 12.9 257 27.4
2004-08-16 11:08:43 51°26.405 2°51.364 260.9 12.9 257 28.6
2004-08-16 11:09:51 51°26.348 2°50.989 260.4 12.8 256 25.1
2004-08-16 11:11:00 51°26.292 2°50.608 260.7 12.7 257 25.3
2004-08-16 11:12:03 51°26.241 2°50.262 261.8 12.7 258 25.4
2004-08-16 11:13:08 51°26.189 2°49.906 260.1 12.7 256 25.2
2004-08-16 11:14:19 51°26.132 2°49.517 260.3 12.7 257 25.1
2004-08-16 11:15:28 51°26.077 2°49.136 259.4 12.8 256 25.5
2004-08-16 11:16:28 51°26.033 2°48.831 260.3 9.4 256 25.5
2004-08-16 11:17:36 51°25.999 2°48.62 260.7 5.2 256 25.9
2004-08-16 11:18:34 51°25.991 2°48.525 272 1.2 270 25.6
2004-08-16 11:19:48 51°25.991 2°48.562 293.6 1.4 86 25.9
2004-08-16 11:20:50 51°25.99 2°48.597 316.4 1.2 89 26.2
2004-08-16 11:21:53 51°25.991 2°48.627 334.9 1 85 26.1
2004-08-16 11:22:56 51°25.996 2°48.657 350.5 1.1 72 26.1
2004-08-16 11:23:56 51°26.004 2°48.687 355.9 1.2 65 26.1
2004-08-16 11:24:56 51°26.013 2°48.715 355.8 1.3 47 25.9
2004-08-16 11:26:00 51°26.065 2°48.697 316.6 6.4 310 26.1
2004-08-16 11:27:08 51°26.105 2°48.423 277.9 11.9 272 24.8
2004-08-16 11:28:08 51°26.042 2°48.116 242.9 12.5 239 23.6
2004-08-16 11:29:12 51°25.919 2°47.817 238.9 12.5 237 24.1
2004-08-16 11:30:12 51°25.805 2°47.537 240.3 12.5 237 27.2
2004-08-16 11:31:14 51°25.695 2°47.244 241.9 12.5 239 24
2004-08-16 11:32:33 51°25.554 2°46.873 242.2 12.3 239 26.2
2004-08-16 11:33:40 51°25.439 2°46.556 243.8 12.4 239 26.5
2004-08-16 11:34:48 51°25.319 2°46.233 242.4 12.5 240 27.7
2004-08-16 11:35:48 51°25.215 2°45.945 243.7 12.5 240 26.2
2004-08-16 11:36:55 51°25.096 2°45.626 243 12.5 240 27.2
2004-08-16 11:38:00 51°24.981 2°45.316 243.1 12.4 241 25.8
2004-08-16 11:39:05 51°24.867 2°45.006 243.2 12.4 240 27.5
2004-08-16 11:40:04 51°24.765 2°44.725 243.8 12.4 240 29.9
2004-08-16 11:41:05 51°24.66 2°44.436 243.4 12.3 239 29.4
2004-08-16 11:42:04 51°24.557 2°44.159 243 12.1 240 22.8
2004-08-16 11:43:09 51°24.448 2°43.858 243.2 12.1 239 25.4
2004-08-16 11:44:09 51°24.346 2°43.581 244 12 240 25.7
2004-08-16 11:45:08 51°24.246 2°43.31 242.8 12 238 27.2
2004-08-16 11:46:09 51°24.143 2°43.032 242.6 11.9 239 28.5
2004-08-16 11:47:12 51°24.035 2°42.744 243.5 12.1 239 25.8
2004-08-16 11:48:18 51°23.921 2°42.442 244.8 11.9 242 27.4
2004-08-16 11:49:28 51°23.823 2°42.104 249.6 12.1 246 29.8
2004-08-16 11:50:32 51°23.733 2°41.794 248.4 12 244 30.9
2004-08-16 11:51:35 51°23.643 2°41.489 248.8 12.1 245 29.7
2004-08-16 11:52:32 51°23.563 2°41.211 247.7 12.1 244 30.7
2004-08-16 11:53:42 51°23.464 2°40.871 249.2 12.1 246 30.8
2004-08-16 11:54:45 51°23.382 2°40.56 251.3 12.1 248 32
2004-08-16 11:55:43 51°23.312 2°40.272 251.4 12 249 32.4
2004-08-16 11:56:58 51°23.223 2°39.899 251.3 12 249 32.6
2004-08-16 11:57:57 51°23.156 2°39.604 251.6 12 249 32.9
2004-08-16 11:59:08 51°23.074 2°39.25 252 12 251 32.4
2004-08-16 12:00:08 51°23.005 2°38.956 251.4 11.7 248 32.8
2004-08-16 12:01:09 51°22.935 2°38.656 252.5 11.9 250 33.2
2004-08-16 12:02:09 51°22.865 2°38.362 251.1 11.8 249 33.1
2004-08-16 12:03:10 51°22.792 2°38.063 251.4 12 248 32.3
2004-08-16 12:04:10 51°22.722 2°37.765 252.8 12 250 32.5
2004-08-16 12:05:10 51°22.65 2°37.468 250.4 11.9 245 32.7
2004-08-16 12:06:09 51°22.561 2°37.19 246.8 11.9 243 32.3
2004-08-16 12:07:09 51°22.469 2°36.908 246 11.8 243 32.5
2004-08-16 12:08:09 51°22.382 2°36.629 246.2 11.7 245 33.4
2004-08-16 12:09:09 51°22.295 2°36.351 245.6 11.6 242 32.7
2004-08-16 12:10:10 51°22.197 2°36.076 242.3 11.7 240 34
2004-08-16 12:11:15 51°22.087 2°35.782 242.2 11.9 239 33.5
2004-08-16 12:12:14 51°21.986 2°35.512 243.1 12.1 240 32.5
2004-08-16 12:13:15 51°21.883 2°35.231 244 12 240 32.8
2004-08-16 12:14:14 51°21.784 2°34.959 243.6 12 240 33.2
2004-08-16 12:15:15 51°21.684 2°34.677 242.5 11.9 239 33
2004-08-16 12:16:14 51°21.583 2°34.408 242.6 12 240 35
2004-08-16 12:17:15 51°21.484 2°34.128 242.4 11.9 239 35.4
2004-08-16 12:18:15 51°21.39 2°33.851 243.8 11.7 241 35.7
2004-08-16 12:19:16 51°21.294 2°33.574 243.5 11.6 241 34.2
2004-08-16 12:20:14 51°21.205 2°33.311 243.7 11.6 242 33.6
2004-08-16 12:21:15 51°21.112 2°33.031 242.4 11.7 241 32.9
2004-08-16 12:22:14 51°21.02 2°32.761 243.6 11.7 242 32.8
2004-08-16 12:23:14 51°20.928 2°32.489 243.8 11.7 242 31.8
2004-08-16 12:24:17 51°20.833 2°32.203 242.7 11.6 240 29.7
2004-08-16 12:25:17 51°20.739 2°31.933 243.3 11.6 241 26
2004-08-16 12:26:17 51°20.646 2°31.663 243.5 11.5 241 22.9
2004-08-16 12:27:17 51°20.551 2°31.397 244 11.5 241 20.6
2004-08-16 12:28:16 51°20.457 2°31.138 243.4 11.4 239 19.1
2004-08-16 12:29:21 51°20.354 2°30.854 244.1 11.3 241 15.8
2004-08-16 12:30:21 51°20.26 2°30.595 243.1 11.3 240 15.5
2004-08-16 12:31:32 51°20.15 2°30.291 243.9 11.2 238 14.3
2004-08-16 12:32:32 51°20.078 2°30.083 245.2 6.4 240 16.6
2004-08-16 12:33:32 51°20.054 2°29.984 262.3 1.9 285 16.9
2004-08-16 12:34:32 51°20.078 2°30 310.9 2.6 24 18.1
2004-08-16 12:35:32 51°20.131 2°30.022 326.6 3.1 22 17.1
2004-08-16 12:36:32 51°20.17 2°30.057 309.2 2.4 33 15.9
2004-08-16 12:37:32 51°20.201 2°30.095 300 2.3 42 15.7
2004-08-16 12:38:30 51°20.227 2°30.138 288.1 2.1 43 12.2
2004-08-16 12:39:32 51°20.249 2°30.164 264.1 1.2 45 14.9
2004-08-16 12:40:32 51°20.26 2°30.183 251.1 0.8 58 15.7
2004-08-16 12:41:32 51°20.268 2°30.198 252.9 0.8 36 15.8
2004-08-16 12:42:32 51°20.276 2°30.211 248.2 0.6 55 16
2004-08-16 12:43:37 51°20.278 2°30.227 238 0.6 91 16.8
2004-08-16 12:44:37 51°20.277 2°30.245 239.7 0.7 79 16.2
2004-08-16 12:45:37 51°20.286 2°30.261 262.5 0.7   15.6
2004-08-16 12:46:37 51°20.243 2°30.272 173.8 6 143 15.9
2004-08-16 12:47:38 51°20.099 2°30.44 156.1 13.1 145 15.9
2004-08-16 12:48:44 51°19.897 2°30.67 147.9 13.9 136 19.7
2004-08-16 12:49:48 51°19.721 2°30.947 142.9 13.8 135 25.5
2004-08-16 12:50:48 51°19.56 2°31.205 143.3 13.6 134 31.9
2004-08-16 12:51:49 51°19.397 2°31.465 144.7 13.6 136 33.1
2004-08-16 12:52:49 51°19.237 2°31.719 144.4 13.4 134 33.2
2004-08-16 12:53:52 51°19.078 2°31.996 142 13.6 131 33.1
2004-08-16 12:54:54 51°18.925 2°32.276 141.7 13.4 131 34.3
2004-08-16 12:55:54 51°18.777 2°32.544 144.1 13.6 132 32.8
2004-08-16 12:56:52 51°18.628 2°32.799 144.2 13.7 134 30.7
2004-08-16 12:57:58 51°18.466 2°33.106 140.1 13.7 130 26.3
2004-08-16 12:59:04 51°18.302 2°33.413 140.8 13.8 130 21.8
2004-08-16 13:00:04 51°18.154 2°33.695 138.6 13.9 128 28.2
2004-08-16 13:01:03 51°18.006 2°33.975 140.8 14 130 30.7
2004-08-16 13:02:04 51°17.853 2°34.264 140.4 14 129 26.9
2004-08-16 13:03:12 51°17.689 2°34.592 139.8 14 127 25.4
2004-08-16 13:04:12 51°17.543 2°34.883 140.8 14 131 18.2
2004-08-16 13:05:13 51°17.387 2°35.167 139.4 14.1 130 14.6
2004-08-16 13:06:13 51°17.235 2°35.451 140 14 130 14.6
2004-08-16 13:07:14 51°17.077 2°35.733 141.1 13.9 131 20.5
2004-08-16 13:08:14 51°16.928 2°36.012 140.5 13.8 131 28.1
2004-08-16 13:09:14 51°16.781 2°36.293 140.2 13.7 130 29.6
2004-08-16 13:10:19 51°16.644 2°36.566 142.2 9.1 124 29.2
2004-08-16 13:11:19 51°16.607 2°36.738 150.1 5 124 29.3
2004-08-16 13:12:19 51°16.564 2°36.772 216.9 1.5 175 29.5
2004-08-16 13:13:18 51°16.557 2°36.772 240.2 0.1 87 29.4
2004-08-16 13:14:20 51°16.561 2°36.78 245.5 0.6 50 29.5
2004-08-16 13:15:18 51°16.571 2°36.797 249.5 1.1 48 29.4
2004-08-16 13:16:19 51°16.586 2°36.82 254.4 1.3 46 29.3
2004-08-16 13:17:19 51°16.603 2°36.847 261.1 1.6 41 29.3
2004-08-16 13:18:19 51°16.626 2°36.876 274.3 1.9 38 29.3
2004-08-16 13:19:19 51°16.635 2°36.873 229.3 2.2 210 29.3
2004-08-16 13:20:18 51°16.529 2°36.917 182 10.7 170 29
2004-08-16 13:21:19 51°16.335 2°36.958 182.5 11.9 170 29.5
2004-08-16 13:22:19 51°16.139 2°37.043 175.6 12.3 164 24.9
2004-08-16 13:23:17 51°15.947 2°37.131 173.7 12.5 163 16.5
2004-08-16 13:24:19 51°15.738 2°37.218 174.1 12.7 165 14.7
2004-08-16 13:25:19 51°15.54 2°37.35 161.4 13.1 152 14.9
2004-08-16 13:26:18 51°15.352 2°37.523 154.8 13.6 144 15.1
2004-08-16 13:27:19 51°15.169 2°37.741 152.8 13.6 144 13.3
2004-08-16 13:28:18 51°14.985 2°37.945 154.3 13.8 145 14.3
2004-08-16 13:29:19 51°14.795 2°38.155 154.3 13.5 146 18.3
2004-08-16 13:30:18 51°14.617 2°38.361 152.7 13.3 145 19.2
2004-08-16 13:31:18 51°14.434 2°38.567 157.4 13.2 150 20.9
2004-08-16 13:32:18 51°14.24 2°38.729 161.9 13 152 17
2004-08-16 13:33:18 51°14.038 2°38.832 182.4 12.5 174 14.5
2004-08-16 13:34:30 51°13.79 2°38.79 194.9 12.6 189 16.7
2004-08-16 13:35:30 51°13.592 2°38.704 211.9 12.2 208 17.4
2004-08-16 13:36:31 51°13.419 2°38.532 217 12.1 211 17.2
2004-08-16 13:37:36 51°13.231 2°38.348 216 12.2 211 16.9
2004-08-16 13:38:36 51°13.056 2°38.183 215.4 12.2 209 16.6
2004-08-16 13:39:36 51°12.881 2°38.021 215.3 12.2 210 16.1
2004-08-16 13:40:37 51°12.703 2°37.854 214.8 12.1 210 15.5
2004-08-16 13:41:36 51°12.53 2°37.692 215.1 12.3 210 15.1
2004-08-16 13:42:37 51°12.349 2°37.528 214.7 12.3 211 14.7
2004-08-16 13:43:36 51°12.174 2°37.377 208.5 12.3 201 14.4
2004-08-16 13:44:36 51°11.978 2°37.272 203.9 12.3 199 14.8
2004-08-16 13:45:36 51°11.781 2°37.169 203.4 12.5 199 15.1
2004-08-16 13:46:36 51°11.586 2°37.065 203.9 12.4 198 15.7
2004-08-16 13:47:36 51°11.392 2°36.961 203.9 12.3 199 15.9
2004-08-16 13:48:44 51°11.168 2°36.864 198.7 12.4 194 15.7
2004-08-16 13:49:43 51°10.972 2°36.786 199 12.3 193 14.6
2004-08-16 13:50:52 51°10.743 2°36.709 191.6 12.3 184 13.1
2004-08-16 13:51:53 51°10.535 2°36.698 187.7 12.3 182 11.8
2004-08-16 13:52:54 51°10.326 2°36.713 173.7 12.7 163 17.4
2004-08-16 13:53:59 51°10.16 2°36.976 125.2 14 115 20.6
2004-08-16 13:54:58 51°10.123 2°37.342 99.2 14.6 93 20.4
2004-08-16 13:56:00 51°10.116 2°37.742 95 14.7 88 19.8
2004-08-16 13:56:58 51°10.168 2°38.108 73.4 14.8 68 19.2
2004-08-16 13:58:07 51°10.265 2°38.534 73.8 15 68 18.5
2004-08-16 13:59:12 51°10.351 2°38.936 77.3 14.9 72 18.6
2004-08-16 14:00:13 51°10.426 2°39.323 75.9 15 71 17.5
2004-08-16 14:01:12 51°10.51 2°39.689 73.3 15.2 68 17.3
2004-08-16 14:02:12 51°10.595 2°40.06 76 14.9 72 16.5
2004-08-16 14:03:12 51°10.678 2°40.433 75.9 15 70 15.9
2004-08-16 14:04:14 51°10.761 2°40.822 75.9 15 71 15.4
2004-08-16 14:05:14 51°10.856 2°41.186 69.5 14.9 66 15
2004-08-16 14:06:12 51°10.955 2°41.535 68.8 15.1 65 14.9
2004-08-16 14:07:14 51°11.052 2°41.844 56.3 9.5 54 14.9
2004-08-16 14:08:13 51°11.082 2°42.023 113.2 6.5 106 14.9
2004-08-16 14:09:13 51°11.024 2°42.096 192.6 3.1 168 15.1
2004-08-16 14:10:20 51°10.992 2°42.085 238.5 0.9 208 15.3
2004-08-16 14:11:24 51°10.988 2°42.082 257.8 0.2 7 15.2
2004-08-16 14:12:30 51°10.995 2°42.088 267.4 0.6 38 15.3
2004-08-16 14:13:29 51°11.004 2°42.103 273.6 1 47 15.2
2004-08-16 14:14:30 51°11.018 2°42.128 284.2 1.2 41 15.3
2004-08-16 14:15:36 51°10.999 2°42.107 204.9 4.3 174 15.1
2004-08-16 14:16:34 51°10.96 2°42.249 89.9 9.6 76 15.2
2004-08-16 14:17:40 51°11.037 2°42.617 79.7 14.6 75 15.1
2004-08-16 14:18:40 51°11.103 2°42.993 77.8 14.7 75 15.1
2004-08-16 14:19:40 51°11.158 2°43.371 82.7 14.5 79 15
2004-08-16 14:20:40 51°11.205 2°43.748 83 14.5 78 15
2004-08-16 14:21:40 51°11.255 2°44.128 80.6 14.7 75 14.9
2004-08-16 14:22:40 51°11.323 2°44.497 79.1 14.5 74 14.8
2004-08-16 14:23:40 51°11.394 2°44.868 76.4 14.6 71 14.8
2004-08-16 14:24:40 51°11.484 2°45.229 71.1 14.7 68 14.8
2004-08-16 14:25:39 51°11.57 2°45.583 73.3 14.6 68 14.9
2004-08-16 14:26:40 51°11.664 2°45.946 72.3 14.4 65 14.9
2004-08-16 14:27:42 51°11.783 2°46.3 65.9 14.7 61 15.1
2004-08-16 14:28:44 51°11.903 2°46.648 60.6 14.6 56 15.1
2004-08-16 14:29:42 51°12.028 2°46.962 63.3 14.4 59 15.1
2004-08-16 14:30:42 51°12.147 2°47.298 64.5 14.5 61 15.1
2004-08-16 14:31:42 51°12.269 2°47.634 63.7 14.6 60 15
2004-08-16 14:32:48 51°12.406 2°48.005 64.1 14.7 60 14.8
2004-08-16 14:33:53 51°12.539 2°48.371 64 14.8 60 14.7
2004-08-16 14:34:58 51°12.661 2°48.752 67.6 14.9 64 14.5
2004-08-16 14:35:58 51°12.774 2°49.101 66.8 14.7 63 14.3
2004-08-16 14:37:10 51°12.905 2°49.519 67.9 14.7 63 14.1
2004-08-16 14:38:19 51°13.031 2°49.916 66.2 14.7 60 14
2004-08-16 14:39:18 51°13.141 2°50.254 69 14.7 64 13.8
2004-08-16 14:40:19 51°13.253 2°50.605 68.9 14.5 63 13.6
2004-08-16 14:41:19 51°13.363 2°50.947 67.3 14.6 63 13.5
2004-08-16 14:42:19 51°13.475 2°51.293 67.2 14.7 63 13.3
2004-08-16 14:43:18 51°13.58 2°51.636 67.2 14.6 63 13.2
2004-08-16 14:44:20 51°13.694 2°51.99 68.3 14.4 63 13
2004-08-16 14:45:22 51°13.801 2°52.343 67.6 14.3 63 12.8
2004-08-16 14:46:33 51°13.93 2°52.74 64.7 14.3 59 12.7
2004-08-16 14:47:32 51°14.051 2°53.059 65.9 14.3 61 12.3
2004-08-16 14:48:32 51°14.167 2°53.388 63.3 14.2 59 12.1
2004-08-16 14:49:37 51°14.285 2°53.731 67.2 13.4 63 11.7
2004-08-16 14:50:42 51°14.381 2°54.095 76.4 14.1 73 11.7
2004-08-16 14:51:42 51°14.439 2°54.454 84.9 13.8 82 12.7
2004-08-16 14:52:44 51°14.428 2°54.813 106.7 12.8 104 12.8
2004-08-16 14:53:52 51°14.333 2°55.146 124.8 11.2 125 12.8